Marysville, OH

11:19 AM EDT on October 18, 2017 (GMT -0400)
Marysville

Weather History for KMRT - November, 2013

Change the Weather History Date:

Friday, November 1, 2013

  Actual Average (KDLZ) Record (KDLZ)
Temperature  
Mean Temperature 55 °F -  
Max Temperature 63 °F 61 °F 79 °F (1950)
Min Temperature 47 °F 38 °F 16 °F (1988)
Degree Days  
Heating Degree Days 10    
Growing Degree Days 5 (Base 50)    
Moisture  
Dew Point 44 °F    
Average Humidity 72    
Maximum Humidity 88    
Minimum Humidity 53    
Precipitation  
Precipitation 0.20 in - - ()
Sea Level Pressure  
Sea Level Pressure 29.61 in    
Wind  
Wind Speed 14 mph (West)    
Max Wind Speed 24 mph    
Max Gust Speed 30 mph    
Visibility 10 miles    
Events      
Averages and records for this station are not official NWS values.
T = Trace of Precipitation, MM = Missing Value Source: NWS Daily Summary

Daily Weather History Graph

Daily Weather History Graph

Search for Another Location

Airport or City:

Trip Planner

Search our weather history database for the weather conditions in past years. The results will help you decide how hot, cold, wet, or windy it might be!

Date:

Astronomy

Nov. 01, 2013 Rise Set
Actual Time 8:03 AM EDT 6:30 PM EDT
Civil Twilight 7:34 AM EDT 6:58 PM EDT
Nautical Twilight 7:02 AM EDT 7:30 PM EDT
Astronomical Twilight 6:31 AM EDT 8:02 PM EDT
Moon 5:54 AM EDT (11/1) 5:22 PM EDT (11/1)
Length of Visible Light 11h 23m
Length of Day
10h 27m
Waning Crescent, 4% of the Moon is Illuminated
Nov 1
Waning Crescent
Nov 3
New
Nov 10
First Quarter
Nov 17
Full
Nov 25
Last Quarter

Hourly Weather History & Observations

Time (EDT) Temp. Dew Point Humidity Pressure Visibility Wind Dir Wind Speed Gust Speed Precip Events Conditions
12:13 AM 63.3 °F 59.7 °F 88% 29.33 in 5.0 mi SW 21.9 mph 28.8 mph N/A   Overcast
12:34 AM 57.2 °F 51.8 °F 82% 29.36 in - WNW 16.1 mph 26.5 mph N/A   Overcast
12:53 AM 56.5 °F 52.0 °F 85% 29.37 in 5.0 mi West 11.5 mph 20.7 mph N/A   Overcast
1:13 AM 56.5 °F 52.7 °F 87% 29.38 in 7.0 mi WSW 11.5 mph 17.3 mph N/A   Overcast
1:34 AM 56.3 °F 52.7 °F 88% 29.40 in 7.0 mi WSW 11.5 mph 18.4 mph N/A   Overcast
1:53 AM 56.3 °F 52.3 °F 87% 29.41 in 10.0 mi WSW 12.7 mph 17.3 mph N/A   Overcast
2:13 AM 56.3 °F 52.2 °F 86% 29.40 in 10.0 mi WSW 12.7 mph 24.2 mph N/A   Overcast
2:34 AM 56.1 °F 52.2 °F 87% 29.41 in 10.0 mi WSW 11.5 mph 18.4 mph N/A   Mostly Cloudy
2:53 AM 55.6 °F 52.0 °F 88% 29.43 in 10.0 mi WSW 13.8 mph 17.3 mph N/A   Overcast
3:13 AM 55.9 °F 52.2 °F 87% 29.44 in 10.0 mi WSW 15.0 mph 23.0 mph N/A   Overcast
3:34 AM 56.3 °F 51.3 °F 83% 29.45 in 10.0 mi West 20.7 mph 27.6 mph N/A   Mostly Cloudy
3:53 AM 55.8 °F 49.5 °F 79% 29.45 in 10.0 mi West 17.3 mph 25.3 mph N/A   Mostly Cloudy
4:13 AM 55.2 °F 48.7 °F 79% 29.47 in 10.0 mi WSW 15.0 mph 25.3 mph N/A   Overcast
4:34 AM 54.1 °F 47.3 °F 78% 29.49 in 10.0 mi West 18.4 mph 24.2 mph N/A   Overcast
4:53 AM 52.7 °F 45.5 °F 76% 29.51 in 10.0 mi West 20.7 mph 29.9 mph N/A   Overcast
5:13 AM 51.8 °F 44.6 °F 76% 29.53 in 10.0 mi West 24.2 mph 27.6 mph 0.01 in   Mostly Cloudy
5:34 AM 51.1 °F 43.5 °F 75% 29.54 in 10.0 mi West 23.0 mph 29.9 mph 0.01 in   Mostly Cloudy
5:53 AM 50.9 °F 43.7 °F 76% 29.55 in 10.0 mi West 12.7 mph 23.0 mph 0.01 in   Overcast
6:13 AM 50.4 °F 43.7 °F 78% 29.55 in 10.0 mi West 17.3 mph 24.2 mph N/A   Mostly Cloudy
6:34 AM 49.8 °F 43.3 °F 78% 29.58 in 10.0 mi West 15.0 mph 23.0 mph N/A   Scattered Clouds
6:53 AM 49.5 °F 43.2 °F 79% 29.58 in 10.0 mi WSW 11.5 mph 24.2 mph N/A   Mostly Cloudy
7:13 AM 50.0 °F 43.3 °F 78% 29.60 in 10.0 mi West 13.8 mph 23.0 mph 0.01 in   Overcast
7:34 AM 48.9 °F 42.3 °F 78% 29.61 in 10.0 mi West 15.0 mph 23.0 mph 0.01 in   Mostly Cloudy
7:53 AM 48.2 °F 42.4 °F 80% 29.61 in 10.0 mi WSW 12.7 mph 17.3 mph 0.01 in   Scattered Clouds
8:13 AM 47.7 °F 41.5 °F 79% 29.63 in 10.0 mi West 15.0 mph - N/A   Scattered Clouds
8:34 AM 47.3 °F 41.9 °F 82% 29.64 in 10.0 mi West 12.7 mph 17.3 mph 0.01 in   Clear
8:53 AM 47.5 °F 42.4 °F 83% 29.66 in 10.0 mi WSW 8.1 mph - 0.01 in   Scattered Clouds
9:13 AM 48.4 °F 42.6 °F 80% 29.67 in 10.0 mi West 13.8 mph 18.4 mph 0.01 in   Overcast
9:34 AM 49.1 °F 42.6 °F 78% 29.66 in 10.0 mi West 13.8 mph 18.4 mph 0.01 in   Mostly Cloudy
9:53 AM 49.5 °F 42.4 °F 77% 29.67 in 10.0 mi WSW 10.4 mph 16.1 mph 0.02 in   Mostly Cloudy
10:13 AM 50.5 °F 43.3 °F 76% 29.68 in 10.0 mi WSW 13.8 mph - N/A   Mostly Cloudy
10:34 AM 50.5 °F 43.0 °F 75% 29.68 in 10.0 mi WSW 13.8 mph - 0.01 in   Mostly Cloudy
10:53 AM 50.7 °F 42.8 °F 74% 29.68 in 10.0 mi WSW 12.7 mph 19.6 mph 0.01 in   Overcast
11:13 AM 51.8 °F 43.3 °F 73% 29.68 in 10.0 mi SW 16.1 mph - 0.01 in   Overcast
11:33 AM 51.8 °F 42.8 °F 71% 29.68 in 10.0 mi WSW 13.8 mph 20.7 mph 0.01 in   Overcast
11:53 AM 54.0 °F 44.1 °F 69% 29.68 in 10.0 mi SW 18.4 mph 25.3 mph 0.01 in   Overcast
12:14 PM 53.2 °F 43.3 °F 69% 29.69 in 10.0 mi WSW 13.8 mph 24.2 mph N/A   Overcast
12:33 PM 52.2 °F 42.4 °F 69% 29.70 in 10.0 mi WSW 13.8 mph 25.3 mph N/A   Overcast
12:53 PM 53.4 °F 43.5 °F 69% 29.69 in 10.0 mi WSW 13.8 mph 23.0 mph 0.01 in   Mostly Cloudy
1:13 PM 53.8 °F 43.2 °F 67% 29.68 in 10.0 mi WSW 18.4 mph 25.3 mph N/A   Mostly Cloudy
1:33 PM 53.4 °F 42.8 °F 67% 29.67 in 10.0 mi West 13.8 mph 21.9 mph 0.01 in   Mostly Cloudy
1:53 PM 54.7 °F 43.9 °F 67% 29.67 in 10.0 mi WSW 10.4 mph 17.3 mph 0.01 in   Mostly Cloudy
2:13 PM 54.7 °F 42.4 °F 63% 29.66 in 10.0 mi WSW 11.5 mph 19.6 mph N/A   Overcast
2:33 PM 55.4 °F 41.7 °F 60% 29.66 in 10.0 mi WSW 17.3 mph 23.0 mph 0.01 in   Overcast
2:53 PM 55.9 °F 41.9 °F 59% 29.65 in 10.0 mi WSW 12.7 mph 17.3 mph 0.01 in   Overcast
3:13 PM 56.7 °F 42.1 °F 58% 29.65 in 10.0 mi West 16.1 mph 24.2 mph 0.01 in   Mostly Cloudy
3:33 PM 56.7 °F 42.8 °F 60% 29.65 in 10.0 mi West 17.3 mph - 0.01 in   Overcast
3:53 PM 56.5 °F 41.5 °F 57% 29.65 in 10.0 mi West 15.0 mph 21.9 mph 0.01 in   Overcast
4:13 PM 57.4 °F 41.2 °F 55% 29.65 in 10.0 mi West 13.8 mph - N/A   Overcast
4:33 PM 56.7 °F 39.9 °F 54% 29.65 in 10.0 mi West 16.1 mph 23.0 mph N/A   Mostly Cloudy
4:54 PM 57.2 °F 40.3 °F 53% 29.65 in 10.0 mi West 6.9 mph - 0.01 in   Scattered Clouds
5:13 PM 56.3 °F 40.5 °F 55% 29.66 in 10.0 mi West 12.7 mph - N/A   Mostly Cloudy
5:33 PM 56.1 °F 41.0 °F 57% 29.66 in 10.0 mi West 9.2 mph - N/A   Overcast
5:54 PM 55.0 °F 41.5 °F 60% 29.66 in 10.0 mi WNW 6.9 mph - 0.01 in   Overcast
6:13 PM 54.5 °F 42.1 °F 63% 29.67 in 10.0 mi WNW 6.9 mph - N/A   Overcast
6:33 PM 53.8 °F 42.8 °F 66% 29.67 in 10.0 mi West 4.6 mph - N/A   Overcast
6:54 PM 53.4 °F 42.4 °F 66% 29.68 in 10.0 mi NW 4.6 mph - 0.01 in   Overcast
7:13 PM 53.6 °F 42.1 °F 65% 29.68 in 10.0 mi WNW 4.6 mph - N/A   Overcast
7:33 PM 52.7 °F 42.1 °F 67% 29.69 in 10.0 mi NW 3.5 mph - N/A   Overcast
7:53 PM 52.7 °F 42.1 °F 67% 29.70 in 10.0 mi WNW 3.5 mph - 0.01 in   Overcast
8:13 PM 52.5 °F 42.1 °F 68% 29.70 in 10.0 mi WNW 4.6 mph - N/A   Overcast
8:33 PM 52.5 °F 41.7 °F 67% 29.70 in 10.0 mi NW 6.9 mph - N/A   Overcast
8:54 PM 51.8 °F 41.7 °F 68% 29.70 in 10.0 mi NW 6.9 mph - 0.01 in   Overcast
9:13 PM 52.0 °F 41.7 °F 68% 29.71 in 10.0 mi NW 8.1 mph - N/A   Overcast
9:33 PM 51.3 °F 41.5 °F 69% 29.71 in 10.0 mi NW 5.8 mph - 0.01 in   Overcast
9:54 PM 50.0 °F 41.4 °F 72% 29.71 in 10.0 mi NW 4.6 mph - 0.02 in   Overcast
10:13 PM 50.4 °F 40.8 °F 70% 29.72 in 10.0 mi NW 5.8 mph - N/A   Overcast
10:33 PM 50.2 °F 40.6 °F 70% 29.72 in 10.0 mi NW 3.5 mph - N/A   Overcast
10:54 PM 50.0 °F 40.6 °F 70% 29.72 in 10.0 mi WNW 3.5 mph - 0.01 in   Overcast
11:13 PM 49.6 °F 40.3 °F 70% 29.73 in 10.0 mi WNW 6.9 mph - N/A   Overcast
11:33 PM 49.5 °F 40.1 °F 70% 29.74 in 10.0 mi WNW 5.8 mph - 0.01 in   Overcast
11:53 PM 49.1 °F 40.5 °F 72% 29.73 in 10.0 mi West 4.6 mph - 0.01 in   Overcast